General Aviation Weather

Text Reports

Enter one or more of the following location identifiers separated by a space:

Zip Code, Four-Character ICAO or Three-Character IATA airport codes.

METAR - Aviation Routine Weather Report
KSQI - Sterling, Illinois
Updated at 5:15 AM GMT on July 29, 2014 (12:15 AM CDT):
METAR KSQI 290515Z 31005KT 10SM CLR 14/11 A3010 RMK AO1
TAF - Terminal Area Forecast
KSQI - Sterling, Illinois
Updated at 5:15 AM GMT on July 29, 2014 (12:15 AM CDT):
No TAF is currently available for this location.
Decoded:
No decoded TAF is available.
PIREP - Pilot Weather Report
KSQI - Sterling, Illinois
Updated at 5:15 AM GMT on July 29, 2014 (12:15 AM CDT):
No PIREP is currently available for this location.
AIRMET - Airmens Meteorological Information
KSQI - Sterling, Illinois
Updated at 5:15 AM GMT on July 29, 2014 (12:15 AM CDT):
No AIRMET is currently available for this location.
SIGMET - Significant Meteorological Information
KSQI - Sterling, Illinois
Updated at 5:15 AM GMT on July 29, 2014 (12:15 AM CDT):
No SIGMET is currently available for this location.
NOTAM - Notice to Airmen
KSQI - Sterling, Illinois
Updated at 5:15 AM GMT on July 29, 2014 (12:15 AM CDT):
No NOTAM is currently available for this location.
Forecast Area
KSQI - Sterling, Illinois
Updated at 5:15 AM GMT on July 29, 2014 (12:15 AM CDT):
No NOTAM is currently available for this location.
Aviation Weather Maps